createdAt,value
2018-07-10T00:00:18.113Z,99476.56
2018-07-10T00:03:35.245Z,99479.17
2018-07-10T00:06:19.901Z,99469.00
2018-07-10T00:10:33.961Z,99469.78
2018-07-10T00:13:04.288Z,99470.59
2018-07-10T00:15:35.194Z,99475.62
2018-07-10T00:18:05.917Z,99469.38
2018-07-10T00:20:36.601Z,99468.37
2018-07-10T00:23:06.909Z,99472.58
2018-07-10T00:25:37.956Z,99474.45
2018-07-10T00:28:08.173Z,99476.44
2018-07-10T00:30:38.394Z,99476.19
2018-07-10T00:33:08.488Z,99476.21
2018-07-10T00:35:39.433Z,99474.99
2018-07-10T00:38:26.535Z,99467.44
2018-07-10T00:40:58.169Z,99473.19
2018-07-10T00:43:28.886Z,99479.73
2018-07-10T00:45:59.852Z,99479.12
2018-07-10T00:48:30.605Z,99468.69
2018-07-10T00:51:01.594Z,99468.41
2018-07-10T00:53:32.317Z,99474.76
2018-07-10T00:56:03.057Z,99475.08
2018-07-10T00:58:33.958Z,99468.27
2018-07-10T01:01:04.816Z,99463.06
2018-07-10T01:03:34.813Z,99467.01
2018-07-10T01:06:05.978Z,99458.67
2018-07-10T01:08:36.285Z,99463.38
2018-07-10T01:11:13.696Z,99459.47
2018-07-10T01:13:44.817Z,99458.90
2018-07-10T01:16:16.809Z,99459.92
2018-07-10T01:18:47.682Z,99462.07
2018-07-10T01:21:23.194Z,99458.64
2018-07-10T01:24:00.608Z,99465.97
2018-07-10T01:26:38.895Z,99462.59
2018-07-10T01:29:21.037Z,99461.30
2018-07-10T01:31:54.829Z,99457.11
2018-07-10T01:34:25.761Z,99461.53
2018-07-10T01:36:56.529Z,99456.73
2018-07-10T01:39:27.140Z,99460.42
2018-07-10T01:41:57.492Z,99454.20
2018-07-10T01:44:28.209Z,99451.03
2018-07-10T01:46:58.981Z,99451.27
2018-07-10T01:49:29.621Z,99453.63
2018-07-10T01:52:00.491Z,99450.30
2018-07-10T01:54:31.404Z,99443.71
2018-07-10T01:57:02.394Z,99449.48
2018-07-10T01:59:33.293Z,99444.30
2018-07-10T02:02:04.205Z,99445.59
2018-07-10T02:04:35.019Z,99445.09
2018-07-10T02:07:05.627Z,99442.47
2018-07-10T02:09:36.401Z,99445.59
2018-07-10T02:12:07.856Z,99446.67
2018-07-10T02:14:38.128Z,99447.59
2018-07-10T02:17:08.996Z,99442.09
2018-07-10T02:19:39.939Z,99447.60
2018-07-10T02:22:10.109Z,99440.64
2018-07-10T02:24:40.878Z,99445.89
2018-07-10T02:27:11.970Z,99448.76
2018-07-10T02:29:42.685Z,99443.95
2018-07-10T02:32:13.424Z,99451.80
2018-07-10T02:34:44.104Z,99449.20
2018-07-10T02:37:15.030Z,99455.88
2018-07-10T02:39:45.770Z,99459.08
2018-07-10T02:42:17.554Z,99452.79
2018-07-10T02:44:48.190Z,99448.15
2018-07-10T02:47:19.277Z,99446.55
2018-07-10T02:49:50.534Z,99453.41
2018-07-10T02:52:21.478Z,99460.92
2018-07-10T02:54:52.277Z,99453.90
2018-07-10T02:57:23.993Z,99455.92
2018-07-10T02:59:54.730Z,99456.70
2018-07-10T03:02:29.775Z,99453.12
2018-07-10T03:05:04.001Z,99451.87
2018-07-10T03:07:35.865Z,99454.75
2018-07-10T03:10:06.577Z,99451.52
2018-07-10T03:12:38.182Z,99452.77
2018-07-10T03:15:12.626Z,99445.98
2018-07-10T03:17:43.524Z,99449.17
2018-07-10T03:20:14.326Z,99446.33
2018-07-10T03:22:45.021Z,99450.98
2018-07-10T03:25:15.693Z,99453.25
2018-07-10T03:27:46.457Z,99453.03
2018-07-10T03:30:17.169Z,99450.69
2018-07-10T03:32:47.833Z,99451.93
2018-07-10T03:35:18.366Z,99452.20
2018-07-10T03:37:49.401Z,99451.64
2018-07-10T03:40:20.561Z,99452.52
2018-07-10T03:42:51.802Z,99451.72
2018-07-10T03:45:22.641Z,99457.04
2018-07-10T03:47:53.802Z,99459.95
2018-07-10T03:50:24.717Z,99452.89
2018-07-10T03:52:56.532Z,99454.48
2018-07-10T03:55:27.385Z,99454.02
2018-07-10T03:58:00.210Z,99458.18
2018-07-10T04:00:32.065Z,99464.16
2018-07-10T04:03:03.194Z,99464.53
2018-07-10T04:05:34.063Z,99467.99
2018-07-10T04:08:07.221Z,99458.92
2018-07-10T04:10:38.347Z,99464.44
2018-07-10T04:13:17.364Z,99461.81
2018-07-10T04:15:48.761Z,99465.98
2018-07-10T04:18:24.598Z,99460.28
2018-07-10T04:21:34.333Z,99461.28
2018-07-10T04:24:21.329Z,99464.31
2018-07-10T04:28:17.757Z,99457.64
2018-07-10T04:31:04.073Z,99458.16
2018-07-10T04:33:34.841Z,99464.06
2018-07-10T04:36:05.606Z,99467.72
2018-07-10T04:38:36.234Z,99466.75
2018-07-10T04:41:19.139Z,99461.02
2018-07-10T04:43:56.569Z,99468.32
2018-07-10T04:46:33.318Z,99467.33
2018-07-10T04:49:21.577Z,99475.42
2018-07-10T04:52:01.196Z,99473.88
2018-07-10T04:54:45.677Z,99475.16
2018-07-10T04:57:20.067Z,99473.37
2018-07-10T04:59:50.630Z,99471.77
2018-07-10T05:02:21.821Z,99467.87
2018-07-10T05:04:52.655Z,99466.23
2018-07-10T05:07:23.333Z,99466.41
2018-07-10T05:09:54.129Z,99466.72
2018-07-10T05:12:25.058Z,99468.63
2018-07-10T05:14:56.845Z,99467.22
2018-07-10T05:17:27.789Z,99467.87
2018-07-10T05:19:58.701Z,99471.87
2018-07-10T05:22:30.854Z,99465.89
2018-07-10T05:25:01.658Z,99466.60
2018-07-10T05:27:32.200Z,99469.70
2018-07-10T05:30:02.423Z,99466.41
2018-07-10T05:32:34.289Z,99469.61
2018-07-10T05:35:05.227Z,99468.63
2018-07-10T05:37:37.441Z,99471.48
2018-07-10T05:40:12.196Z,99479.84
2018-07-10T05:42:47.429Z,99482.08
2018-07-10T05:45:22.964Z,99473.82
2018-07-10T05:48:04.801Z,99477.22
2018-07-10T05:50:37.805Z,99476.86
2018-07-10T05:53:11.901Z,99476.43
2018-07-10T05:55:48.094Z,99479.84
2018-07-10T05:58:18.889Z,99474.63
2018-07-10T06:00:49.727Z,99472.40
2018-07-10T06:03:20.774Z,99469.41
2018-07-10T06:05:51.601Z,99471.30
2018-07-10T06:08:22.682Z,99468.48
2018-07-10T06:10:53.478Z,99473.05
2018-07-10T06:13:25.014Z,99472.17
2018-07-10T06:15:55.661Z,99466.42
2018-07-10T06:18:26.630Z,99479.95
2018-07-10T06:20:56.824Z,99473.95
2018-07-10T06:23:34.014Z,99477.92
2018-07-10T06:26:04.854Z,99473.05
2018-07-10T06:28:38.015Z,99467.90
2018-07-10T06:31:13.757Z,99467.84
2018-07-10T06:34:03.962Z,99463.05
2018-07-10T06:36:41.142Z,99457.86
2018-07-10T06:39:14.616Z,99458.00
2018-07-10T06:41:55.102Z,99461.24
2018-07-10T06:44:27.668Z,99460.30
2018-07-10T06:47:01.377Z,99458.36
2018-07-10T06:49:36.950Z,99463.94
2018-07-10T06:52:21.947Z,99462.47
2018-07-10T06:55:10.217Z,99464.78
2018-07-10T06:57:52.842Z,99468.30
2018-07-10T07:00:24.102Z,99464.84
2018-07-10T07:02:54.553Z,99466.11
2018-07-10T07:05:24.785Z,99463.52
2018-07-10T07:07:55.284Z,99461.80
2018-07-10T07:10:27.009Z,99461.55
2018-07-10T07:12:57.474Z,99456.98
2018-07-10T07:15:27.692Z,99456.21
2018-07-10T07:17:58.393Z,99454.44
2018-07-10T07:20:29.093Z,99449.88
2018-07-10T07:22:59.873Z,99450.81
2018-07-10T07:25:30.674Z,99446.16
2018-07-10T07:28:01.430Z,99453.78
2018-07-10T07:30:32.287Z,99448.17
2018-07-10T07:33:03.126Z,99453.66
2018-07-10T07:35:33.979Z,99444.59
2018-07-10T07:38:04.822Z,99448.98
2018-07-10T07:40:35.782Z,99444.73
2018-07-10T07:43:06.389Z,99439.58
2018-07-10T07:45:37.250Z,99457.25
2018-07-10T07:48:08.465Z,99447.45
2018-07-10T07:50:38.728Z,99450.30
2018-07-10T07:53:09.526Z,99447.97
2018-07-10T07:55:40.497Z,99448.74
2018-07-10T07:58:11.278Z,99447.20
2018-07-10T08:00:42.017Z,99446.68
2018-07-10T08:03:12.654Z,99447.09
2018-07-10T08:05:43.453Z,99453.77
2018-07-10T08:08:14.126Z,99454.49
2018-07-10T08:10:44.826Z,99448.38
2018-07-10T08:13:15.674Z,99448.88
2018-07-10T08:15:46.626Z,99451.30
2018-07-10T08:18:17.849Z,99454.11
2018-07-10T08:20:49.223Z,99459.11
2018-07-10T08:23:19.866Z,99447.83
2018-07-10T08:25:50.493Z,99452.30
2018-07-10T08:28:20.805Z,99448.66
2018-07-10T08:30:51.730Z,99446.50
2018-07-10T08:33:22.574Z,99448.95
2018-07-10T08:35:53.442Z,99443.38
2018-07-10T08:38:44.553Z,99443.33
2018-07-10T08:41:21.022Z,99437.39
2018-07-10T08:43:51.789Z,99435.91
2018-07-10T08:46:30.069Z,99433.59
2018-07-10T08:49:01.077Z,99424.27
2018-07-10T08:51:32.122Z,99422.19
2018-07-10T08:54:03.205Z,99416.53
2018-07-10T08:56:34.126Z,99418.05
2018-07-10T08:59:04.898Z,99405.02
2018-07-10T09:01:35.228Z,99401.45
2018-07-10T09:04:05.970Z,99404.17
2018-07-10T09:06:36.830Z,99404.56
2018-07-10T09:09:07.662Z,99403.16
2018-07-10T09:11:38.538Z,99394.81
2018-07-10T09:14:09.402Z,99396.75
2018-07-10T09:16:40.358Z,99396.02
2018-07-10T09:19:12.611Z,99396.34
2018-07-10T09:22:05.429Z,99393.35
2018-07-10T09:24:51.776Z,99395.52
2018-07-10T09:27:23.888Z,99398.63
2018-07-10T09:29:54.181Z,99388.45
2018-07-10T09:32:30.109Z,99399.72
2018-07-10T09:35:00.841Z,99391.97
2018-07-10T09:37:37.917Z,99386.22
2018-07-10T09:40:15.970Z,99385.93
2018-07-10T09:42:51.411Z,99387.98
2018-07-10T09:45:22.109Z,99382.97
2018-07-10T09:47:53.062Z,99378.45
2018-07-10T09:50:23.317Z,99382.58
2018-07-10T09:52:54.174Z,99380.33
2018-07-10T09:55:24.771Z,99380.03
2018-07-10T09:57:57.945Z,99375.25
2018-07-10T10:00:33.402Z,99373.81
2018-07-10T10:03:04.961Z,99359.85
2018-07-10T10:05:40.405Z,99358.80
2018-07-10T10:08:11.485Z,99361.61
2018-07-10T10:10:42.174Z,99354.59
2018-07-10T10:13:12.713Z,99359.86
2018-07-10T10:15:43.739Z,99361.45
2018-07-10T10:18:14.701Z,99358.25
2018-07-10T10:20:45.401Z,99360.73
2018-07-10T10:23:16.161Z,99362.08
2018-07-10T10:25:51.767Z,99350.88
2018-07-10T10:28:26.485Z,99355.20
2018-07-10T10:30:57.414Z,99343.89
2018-07-10T10:33:28.537Z,99333.25
2018-07-10T10:35:59.461Z,99335.17
2018-07-10T10:38:30.662Z,99335.77
2018-07-10T10:41:03.781Z,99339.02
2018-07-10T10:43:34.689Z,99338.83
2018-07-10T10:46:05.413Z,99328.45
2018-07-10T10:48:36.685Z,99328.68
2018-07-10T10:51:07.569Z,99331.95
2018-07-10T10:53:39.450Z,99328.25
2018-07-10T10:56:10.301Z,99322.41
2018-07-10T10:58:41.808Z,99322.31
2018-07-10T11:01:12.564Z,99325.14
2018-07-10T11:03:43.510Z,99319.31
2018-07-10T11:06:13.715Z,99325.59
2018-07-10T11:08:44.553Z,99324.30
2018-07-10T11:11:15.515Z,99313.78
2018-07-10T11:13:46.474Z,99311.69
2018-07-10T11:16:17.017Z,99313.94
2018-07-10T11:19:04.177Z,99309.15
2018-07-10T11:22:46.419Z,99308.02
2018-07-10T11:25:17.475Z,99306.75
2018-07-10T11:28:05.188Z,99302.77
2018-07-10T11:30:36.478Z,99306.07
2018-07-10T11:33:08.116Z,99309.41
2018-07-10T11:35:39.641Z,99303.84
2018-07-10T11:38:12.838Z,99301.83
2018-07-10T11:40:50.434Z,99296.91
2018-07-10T11:43:21.448Z,99295.96
2018-07-10T11:45:52.503Z,99282.82
2018-07-10T11:48:23.366Z,99283.27
2018-07-10T11:50:54.117Z,99276.08
2018-07-10T11:53:25.025Z,99280.06
2018-07-10T11:56:14.350Z,99274.45
2018-07-10T11:58:45.126Z,99287.52
2018-07-10T12:01:15.881Z,99289.17
2018-07-10T12:03:46.887Z,99281.80
2018-07-10T12:06:17.657Z,99292.80
2018-07-10T12:08:55.976Z,99281.63
2018-07-10T12:11:33.029Z,99277.23
2018-07-10T12:14:03.971Z,99271.72
2018-07-10T12:16:34.697Z,99268.27
2018-07-10T12:19:05.557Z,99264.55
2018-07-10T12:21:37.175Z,99267.52
2018-07-10T12:24:08.258Z,99260.68
2018-07-10T12:26:40.386Z,99269.07
2018-07-10T12:29:11.742Z,99262.94
2018-07-10T12:31:43.083Z,99267.95
2018-07-10T12:34:13.576Z,99260.47
2018-07-10T12:36:44.477Z,99263.27
2018-07-10T12:39:15.422Z,99258.20
2018-07-10T12:41:46.539Z,99255.21
2018-07-10T12:44:17.501Z,99256.58
2018-07-10T12:46:48.573Z,99262.59
2018-07-10T12:49:19.952Z,99258.25
2018-07-10T12:51:51.896Z,99255.84
2018-07-10T12:54:22.455Z,99253.45
2018-07-10T12:56:54.045Z,99256.52
2018-07-10T12:59:24.940Z,99256.10
2018-07-10T13:01:56.156Z,99256.98
2018-07-10T13:04:28.793Z,99258.27
2018-07-10T13:07:00.536Z,99256.25
2018-07-10T13:09:31.270Z,99251.90
2018-07-10T13:12:02.201Z,99255.88
2018-07-10T13:14:33.702Z,99252.61
2018-07-10T13:17:04.793Z,99256.99
2018-07-10T13:19:39.957Z,99256.84
2018-07-10T13:22:12.136Z,99250.44
2018-07-10T13:24:43.265Z,99243.06
2018-07-10T13:27:14.014Z,99244.03
2018-07-10T13:29:44.923Z,99238.62
2018-07-10T13:32:15.859Z,99236.42
2018-07-10T13:34:46.542Z,99237.30
2018-07-10T13:37:17.704Z,99242.36
2018-07-10T13:39:48.429Z,99240.41
2018-07-10T13:42:19.817Z,99241.80
2018-07-10T13:44:50.020Z,99242.48
2018-07-10T13:47:21.165Z,99243.80
2018-07-10T13:49:51.809Z,99244.77
2018-07-10T13:52:23.701Z,99233.39
2018-07-10T13:54:54.894Z,99230.01
2018-07-10T13:57:25.958Z,99234.33
2018-07-10T13:59:57.022Z,99233.91
2018-07-10T14:02:30.010Z,99235.67
2018-07-10T14:05:01.456Z,99234.27
2018-07-10T14:07:32.954Z,99234.44
2018-07-10T14:10:03.898Z,99237.84
2018-07-10T14:12:35.662Z,99229.08
2018-07-10T14:16:35.817Z,99228.64
2018-07-10T14:19:07.289Z,99231.30
2018-07-10T14:21:38.726Z,99233.42
2018-07-10T14:24:09.661Z,99237.91
2018-07-10T14:26:40.307Z,99237.83
2018-07-10T14:29:10.954Z,99234.66
2018-07-10T14:31:41.590Z,99231.49
2018-07-10T14:34:12.373Z,99225.88
2018-07-10T14:36:43.217Z,99222.56
2018-07-10T14:39:14.266Z,99228.51
2018-07-10T14:41:46.170Z,99218.70
2018-07-10T14:44:17.179Z,99227.38
2018-07-10T14:46:47.897Z,99220.58
2018-07-10T14:49:19.185Z,99223.23
2018-07-10T14:51:52.550Z,99217.16
2018-07-10T14:54:23.656Z,99212.53
2018-07-10T14:56:54.613Z,99216.56
2018-07-10T14:59:25.621Z,99203.11
2018-07-10T15:01:56.531Z,99222.78
2018-07-10T15:04:27.341Z,99217.83
2018-07-10T15:06:58.004Z,99221.94
2018-07-10T15:09:35.446Z,99221.39
2018-07-10T15:12:06.693Z,99229.42
2018-07-10T15:14:37.115Z,99229.84
2018-07-10T15:17:12.890Z,99226.75
2018-07-10T15:19:45.190Z,99224.88
2018-07-10T15:22:16.581Z,99224.19
2018-07-10T15:24:48.208Z,99231.05
2018-07-10T15:27:19.111Z,99216.09
2018-07-10T15:29:50.112Z,99217.66
2018-07-10T15:32:20.879Z,99222.51
2018-07-10T15:34:51.658Z,99215.65
2018-07-10T15:37:22.598Z,99219.64
2018-07-10T15:39:53.491Z,99219.36
2018-07-10T15:42:24.390Z,99217.13
2018-07-10T15:44:55.137Z,99216.87
2018-07-10T15:47:25.885Z,99224.10
2018-07-10T15:49:56.667Z,99226.58
2018-07-10T15:52:27.409Z,99227.55
2018-07-10T15:54:58.169Z,99224.48
2018-07-10T15:57:29.118Z,99232.39
2018-07-10T15:59:59.554Z,99237.70
2018-07-10T16:02:29.977Z,99234.71
2018-07-10T16:05:00.859Z,99237.60
2018-07-10T16:07:31.749Z,99237.80
2018-07-10T16:10:02.570Z,99240.89
2018-07-10T16:12:33.475Z,99240.55
2018-07-10T16:15:03.853Z,99246.89
2018-07-10T16:17:34.362Z,99253.13
2018-07-10T16:20:10.378Z,99250.02
2018-07-10T16:22:43.696Z,99254.78
2018-07-10T16:25:30.801Z,99263.16
2018-07-10T16:28:04.822Z,99251.00
2018-07-10T16:30:35.726Z,99254.94
2018-07-10T16:33:06.642Z,99260.19
2018-07-10T16:35:37.421Z,99265.56
2018-07-10T16:38:07.673Z,99263.43
2018-07-10T16:40:38.479Z,99268.98
2018-07-10T16:43:13.980Z,99265.36
2018-07-10T16:45:44.926Z,99263.86
2018-07-10T16:48:41.665Z,99268.91
2018-07-10T16:52:00.770Z,99272.28
2018-07-10T16:54:30.989Z,99274.20
2018-07-10T16:57:01.723Z,99270.64
2018-07-10T16:59:32.841Z,99279.64
2018-07-10T17:02:03.435Z,99282.45
2018-07-10T17:04:33.993Z,99282.00
2018-07-10T17:07:04.865Z,99287.91
2018-07-10T17:09:35.431Z,99286.61
2018-07-10T17:12:06.177Z,99288.61
2018-07-10T17:14:37.822Z,99296.81
2018-07-10T17:17:12.785Z,99300.42
2018-07-10T17:19:43.570Z,99295.61
2018-07-10T17:22:14.481Z,99306.49
2018-07-10T17:24:45.322Z,99307.59
2018-07-10T17:27:15.425Z,99308.25
2018-07-10T17:29:46.229Z,99310.58
2018-07-10T17:32:17.665Z,99308.00
2018-07-10T17:34:48.401Z,99318.17
2018-07-10T17:37:19.406Z,99325.52
2018-07-10T17:39:50.581Z,99327.80
2018-07-10T17:42:21.901Z,99331.64
2018-07-10T17:44:52.792Z,99338.23
2018-07-10T17:47:23.522Z,99337.86
2018-07-10T17:49:55.608Z,99340.69
2018-07-10T17:52:26.575Z,99342.47
2018-07-10T17:54:56.762Z,99343.55
2018-07-10T17:57:29.186Z,99350.24
2018-07-10T18:00:00.861Z,99344.03
2018-07-10T18:02:31.842Z,99351.98
2018-07-10T18:05:02.609Z,99355.53
2018-07-10T18:07:33.286Z,99356.14
2018-07-10T18:10:04.170Z,99363.52
2018-07-10T18:12:35.023Z,99365.29
2018-07-10T18:15:05.714Z,99366.09
2018-07-10T18:17:35.924Z,99364.90
2018-07-10T18:20:06.591Z,99368.52
2018-07-10T18:22:37.624Z,99374.33
2018-07-10T18:25:08.830Z,99377.27
2018-07-10T18:27:39.493Z,99377.63
2018-07-10T18:30:10.507Z,99380.73
2018-07-10T18:32:41.505Z,99389.07
2018-07-10T18:35:12.376Z,99393.57
2018-07-10T18:37:44.238Z,99399.64
2018-07-10T18:40:15.057Z,99410.38
2018-07-10T18:42:45.882Z,99416.50
2018-07-10T18:45:16.685Z,99414.98
2018-07-10T18:47:46.945Z,99419.46
2018-07-10T18:50:18.585Z,99414.53
2018-07-10T18:52:52.251Z,99423.42
2018-07-10T18:55:22.477Z,99432.16
2018-07-10T18:57:59.368Z,99429.69
2018-07-10T19:00:39.906Z,99438.03
2018-07-10T19:03:13.525Z,99449.22
2018-07-10T19:05:46.726Z,99456.02
2018-07-10T19:08:17.607Z,99468.51
2018-07-10T19:10:48.407Z,99470.72
2018-07-10T19:13:19.529Z,99469.27
2018-07-10T19:15:50.766Z,99472.02
2018-07-10T19:18:21.897Z,99474.45
2018-07-10T19:21:02.639Z,99471.94
2018-07-10T19:23:45.211Z,99483.45
2018-07-10T19:26:16.952Z,99484.05
2018-07-10T19:28:48.712Z,99482.86
2018-07-10T19:31:24.391Z,99483.55
2018-07-10T19:33:56.985Z,99481.66
2018-07-10T19:36:27.953Z,99480.30
2018-07-10T19:38:59.534Z,99482.73
2018-07-10T19:41:30.786Z,99485.86
2018-07-10T19:44:01.895Z,99490.58
2018-07-10T19:46:35.071Z,99481.31
2018-07-10T19:49:06.782Z,99489.45
2018-07-10T19:51:39.670Z,99492.03
2018-07-10T19:54:15.756Z,99494.71
2018-07-10T19:56:46.558Z,99495.58
2018-07-10T19:59:18.793Z,99494.33
2018-07-10T20:01:56.133Z,99502.31
2018-07-10T20:05:14.206Z,99501.14
2018-07-10T20:08:01.723Z,99496.13
2018-07-10T20:10:51.081Z,99503.41
2018-07-10T20:13:46.118Z,99513.85
2018-07-10T20:16:41.645Z,99510.18
2018-07-10T20:19:33.123Z,99512.25
2018-07-10T20:22:14.509Z,99512.35
2018-07-10T20:25:09.070Z,99511.09
2018-07-10T20:28:02.749Z,99515.55
2018-07-10T20:30:54.571Z,99516.95
2018-07-10T20:33:42.339Z,99515.84
2018-07-10T20:36:13.419Z,99516.97
2018-07-10T20:38:44.379Z,99519.30
2018-07-10T20:41:15.237Z,99516.21
2018-07-10T20:43:52.245Z,99520.41
2018-07-10T20:46:24.002Z,99518.08
2018-07-10T20:49:01.530Z,99515.20
2018-07-10T20:51:47.969Z,99517.28
2018-07-10T20:54:25.389Z,99525.66
2018-07-10T20:58:12.054Z,99521.98
2018-07-10T21:00:51.949Z,99524.61
2018-07-10T21:03:29.485Z,99527.49
2018-07-10T21:06:11.882Z,99526.46
2018-07-10T21:09:15.233Z,99524.09
2018-07-10T21:12:11.784Z,99520.42
2018-07-10T21:15:16.513Z,99517.05
2018-07-10T21:21:11.967Z,99514.16
2018-07-10T21:24:00.900Z,99519.33
2018-07-10T21:27:09.085Z,99528.23
2018-07-10T21:30:48.939Z,99526.39
2018-07-10T21:34:02.998Z,99520.40
2018-07-10T21:36:48.197Z,99515.67
2018-07-10T21:40:26.109Z,99519.33
2018-07-10T21:43:24.257Z,99525.05
2018-07-10T21:47:01.558Z,99522.16
2018-07-10T21:49:56.293Z,99524.98
2018-07-10T21:52:27.226Z,99520.03
2018-07-10T21:54:57.901Z,99528.42
2018-07-10T21:57:37.885Z,99526.58
2018-07-10T22:00:08.089Z,99525.84
2018-07-10T22:02:39.151Z,99522.45
2018-07-10T22:05:09.398Z,99527.92
2018-07-10T22:07:40.133Z,99530.02
2018-07-10T22:10:10.784Z,99536.31
2018-07-10T22:12:47.305Z,99540.98
2018-07-10T22:15:18.021Z,99538.92
2018-07-10T22:17:49.697Z,99545.95
2018-07-10T22:20:19.909Z,99542.46
2018-07-10T22:22:50.140Z,99530.97
2018-07-10T22:25:20.381Z,99526.98
2018-07-10T22:27:51.307Z,99530.36
2018-07-10T22:30:26.525Z,99525.98
2018-07-10T22:33:01.787Z,99526.21
2018-07-10T22:35:32.444Z,99523.58
2018-07-10T22:38:04.393Z,99519.08
2018-07-10T22:40:35.201Z,99519.30
2018-07-10T22:43:06.533Z,99521.02
2018-07-10T22:45:39.286Z,99515.34
2018-07-10T22:48:10.210Z,99512.27
2018-07-10T22:50:40.740Z,99511.94
2018-07-10T22:53:11.449Z,99514.73
2018-07-10T22:55:42.213Z,99518.88
2018-07-10T22:58:13.203Z,99524.83
2018-07-10T23:00:43.397Z,99522.20
2018-07-10T23:03:24.773Z,99524.08
2018-07-10T23:05:56.181Z,99529.23
2018-07-10T23:08:33.885Z,99522.27
2018-07-10T23:11:07.093Z,99522.83
2018-07-10T23:13:42.387Z,99525.72
2018-07-10T23:16:13.128Z,99514.77
2018-07-10T23:18:45.661Z,99514.98
2018-07-10T23:21:18.622Z,99520.13
2018-07-10T23:23:51.136Z,99519.39
2018-07-10T23:26:21.773Z,99523.63
2018-07-10T23:28:55.350Z,99524.22
2018-07-10T23:31:29.972Z,99530.28
2018-07-10T23:34:12.061Z,99539.20
2018-07-10T23:36:42.677Z,99537.11
2018-07-10T23:39:13.574Z,99543.53
2018-07-10T23:42:51.237Z,99541.66
2018-07-10T23:45:24.982Z,99545.85
2018-07-10T23:48:02.250Z,99544.97
2018-07-10T23:50:34.588Z,99546.19
2018-07-10T23:54:15.502Z,99541.38
2018-07-10T23:56:46.789Z,99553.41
2018-07-10T23:59:17.541Z,99547.94
